createdAt,value
2022-12-13T00:01:33.430Z,15.57
2022-12-13T00:04:05.217Z,15.17
2022-12-13T00:06:33.443Z,16.20
2022-12-13T00:09:02.022Z,16.17
2022-12-13T00:11:31.017Z,16.67
2022-12-13T00:13:59.105Z,15.20
2022-12-13T00:16:27.903Z,15.80
2022-12-13T00:18:57.737Z,15.40
2022-12-13T00:21:29.397Z,15.43
2022-12-13T00:23:58.077Z,15.10
2022-12-13T00:26:28.182Z,15.73
2022-12-13T00:28:56.446Z,14.83
2022-12-13T00:34:14.146Z,15.57
2022-12-13T00:36:43.426Z,15.93
2022-12-13T00:39:13.850Z,15.43
2022-12-13T00:41:41.921Z,14.87
2022-12-13T00:44:11.528Z,14.30
2022-12-13T00:46:39.741Z,15.10
2022-12-13T00:49:07.812Z,15.17
2022-12-13T00:51:36.107Z,14.97
2022-12-13T00:54:09.088Z,15.77
2022-12-13T00:56:39.269Z,14.73
2022-12-13T00:59:07.177Z,15.70
2022-12-13T01:01:37.521Z,15.50
2022-12-13T01:04:07.825Z,15.67
2022-12-13T01:06:38.850Z,16.50
2022-12-13T01:09:11.020Z,16.37
2022-12-13T01:11:39.025Z,15.20
2022-12-13T01:14:06.933Z,15.83
2022-12-13T01:16:35.947Z,15.37
2022-12-13T01:19:04.139Z,15.90
2022-12-13T01:21:32.245Z,16.87
2022-12-13T01:24:05.054Z,15.37
2022-12-13T01:26:34.632Z,16.03
2022-12-13T01:29:05.720Z,15.93
2022-12-13T01:31:33.958Z,16.23
2022-12-13T01:34:10.127Z,16.13
2022-12-13T01:36:38.504Z,15.03
2022-12-13T01:39:14.477Z,15.80
2022-12-13T01:41:45.822Z,15.87
2022-12-13T01:44:51.046Z,15.17
2022-12-13T01:47:21.948Z,15.40
2022-12-13T01:49:50.329Z,15.97
2022-12-13T01:52:18.668Z,15.23
2022-12-13T01:54:52.138Z,14.83
2022-12-13T01:57:23.921Z,16.10
2022-12-13T01:59:52.814Z,15.87
2022-12-13T02:02:21.052Z,15.70
2022-12-13T02:04:54.136Z,15.30
2022-12-13T02:07:27.450Z,15.37
2022-12-13T02:09:59.729Z,14.67
2022-12-13T02:12:31.918Z,13.87
2022-12-13T02:15:01.752Z,14.50
2022-12-13T02:17:44.963Z,15.60
2022-12-13T02:20:43.671Z,14.97
2022-12-13T02:23:26.521Z,14.67
2022-12-13T02:26:21.032Z,14.70
2022-12-13T02:29:08.499Z,14.73
2022-12-13T02:31:46.466Z,14.50
2022-12-13T02:34:20.923Z,15.00
2022-12-13T02:36:58.479Z,14.63
2022-12-13T02:39:32.110Z,14.60
2022-12-13T02:42:05.789Z,13.50
2022-12-13T02:44:38.597Z,14.77
2022-12-13T02:47:12.519Z,15.80
2022-12-13T02:49:44.853Z,14.80
2022-12-13T02:52:14.509Z,14.87
2022-12-13T02:54:50.542Z,14.93
2022-12-13T02:57:30.514Z,14.00
2022-12-13T03:00:01.237Z,13.80
2022-12-13T03:02:41.791Z,13.93
2022-12-13T03:05:39.474Z,13.60
2022-12-13T03:08:21.162Z,13.87
2022-12-13T03:10:59.235Z,14.40
2022-12-13T03:13:36.582Z,13.93
2022-12-13T03:16:11.873Z,13.83
2022-12-13T03:18:42.683Z,13.57
2022-12-13T03:21:12.509Z,13.57
2022-12-13T03:23:41.053Z,13.57
2022-12-13T03:26:12.121Z,14.60
2022-12-13T03:28:40.768Z,13.40
2022-12-13T03:31:09.474Z,13.73
2022-12-13T03:33:38.679Z,13.37
2022-12-13T03:36:08.854Z,13.40
2022-12-13T03:38:38.317Z,13.43
2022-12-13T03:41:11.210Z,12.67
2022-12-13T03:43:39.812Z,13.90
2022-12-13T03:46:08.246Z,12.43
2022-12-13T03:48:37.385Z,13.00
2022-12-13T03:51:07.332Z,13.60
2022-12-13T03:53:35.411Z,13.30
2022-12-13T03:56:04.867Z,13.33
2022-12-13T03:58:36.473Z,13.10
2022-12-13T04:01:06.369Z,12.90
2022-12-13T04:03:34.389Z,13.00
2022-12-13T04:06:02.415Z,14.17
2022-12-13T04:08:31.717Z,12.63
2022-12-13T04:10:59.746Z,12.50
2022-12-13T04:13:35.507Z,12.73
2022-12-13T04:16:04.171Z,12.83
2022-12-13T04:18:32.300Z,12.87
2022-12-13T04:21:00.360Z,12.60
2022-12-13T04:23:28.472Z,13.33
2022-12-13T04:25:58.943Z,12.10
2022-12-13T04:28:27.058Z,12.87
2022-12-13T04:30:54.898Z,12.37
2022-12-13T04:33:22.962Z,12.40
2022-12-13T04:35:51.473Z,12.10
2022-12-13T04:38:19.620Z,12.63
2022-12-13T04:40:47.758Z,12.20
2022-12-13T04:43:17.152Z,12.40
2022-12-13T04:45:45.151Z,12.07
2022-12-13T04:48:13.711Z,12.57
2022-12-13T04:51:01.119Z,12.73
2022-12-13T04:53:29.617Z,12.13
2022-12-13T04:55:57.493Z,12.77
2022-12-13T04:58:27.142Z,12.50
2022-12-13T05:00:55.113Z,12.87
2022-12-13T05:03:23.186Z,11.27
2022-12-13T05:05:51.299Z,13.27
2022-12-13T05:08:19.329Z,12.23
2022-12-13T05:10:47.445Z,12.17
2022-12-13T05:13:15.358Z,13.27
2022-12-13T05:15:44.492Z,12.33
2022-12-13T05:18:12.463Z,12.13
2022-12-13T05:20:40.888Z,11.77
2022-12-13T05:23:08.678Z,12.90
2022-12-13T05:25:37.418Z,11.47
2022-12-13T05:28:26.789Z,12.10
2022-12-13T05:30:56.003Z,12.53
2022-12-13T05:33:24.678Z,12.07
2022-12-13T05:35:56.337Z,12.40
2022-12-13T05:38:27.703Z,11.50
2022-12-13T05:40:55.543Z,12.93
2022-12-13T05:43:23.945Z,11.90
2022-12-13T05:46:12.679Z,12.43
2022-12-13T05:48:40.867Z,12.07
2022-12-13T05:51:10.172Z,12.03
2022-12-13T05:53:39.494Z,11.60
2022-12-13T05:56:07.785Z,11.87
2022-12-13T05:58:36.390Z,12.23
2022-12-13T06:01:09.045Z,11.03
2022-12-13T06:03:38.456Z,11.40
2022-12-13T06:06:09.003Z,11.70
2022-12-13T06:08:37.163Z,11.87
2022-12-13T06:11:11.457Z,11.53
2022-12-13T06:13:42.689Z,11.97
2022-12-13T06:16:22.520Z,11.43
2022-12-13T06:19:02.733Z,11.10
2022-12-13T06:21:44.110Z,11.57
2022-12-13T06:24:15.452Z,11.83
2022-12-13T06:26:45.298Z,11.37
2022-12-13T06:29:24.324Z,11.63
2022-12-13T06:32:01.750Z,11.20
2022-12-13T06:34:33.752Z,11.40
2022-12-13T06:37:03.337Z,10.90
2022-12-13T06:39:32.996Z,11.80
2022-12-13T06:42:02.009Z,11.43
2022-12-13T06:44:30.010Z,11.07
2022-12-13T06:47:11.225Z,11.10
2022-12-13T06:49:44.074Z,10.57
2022-12-13T06:52:13.864Z,11.17
2022-12-13T06:54:42.212Z,11.17
2022-12-13T06:57:10.444Z,10.80
2022-12-13T06:59:38.240Z,11.07
2022-12-13T07:02:06.184Z,10.33
2022-12-13T07:04:44.685Z,11.37
2022-12-13T07:07:13.157Z,10.90
2022-12-13T07:09:41.157Z,10.47
2022-12-13T07:12:09.248Z,11.00
2022-12-13T07:14:41.067Z,11.03
2022-12-13T07:17:10.710Z,10.63
2022-12-13T07:19:38.608Z,10.43
2022-12-13T07:22:08.033Z,10.43
2022-12-13T07:24:36.233Z,10.70
2022-12-13T07:27:04.343Z,9.43
2022-12-13T07:29:32.724Z,10.73
2022-12-13T07:32:00.979Z,10.27
2022-12-13T07:34:29.985Z,10.13
2022-12-13T07:36:57.773Z,10.97
2022-12-13T07:39:27.192Z,9.77
2022-12-13T07:41:56.162Z,10.57
2022-12-13T07:44:24.775Z,9.80
2022-12-13T07:46:52.825Z,10.67
2022-12-13T07:49:20.779Z,11.20
2022-12-13T07:51:49.000Z,10.10
2022-12-13T07:54:17.044Z,10.33
2022-12-13T07:56:46.328Z,10.67
2022-12-13T07:59:14.420Z,10.03
2022-12-13T08:01:42.534Z,11.47
2022-12-13T08:04:10.460Z,10.67
2022-12-13T08:06:39.390Z,10.33
2022-12-13T08:09:07.744Z,10.40
2022-12-13T08:11:35.590Z,10.27
2022-12-13T08:14:04.785Z,9.60
2022-12-13T08:16:32.971Z,10.17
2022-12-13T08:19:04.414Z,9.93
2022-12-13T08:24:24.570Z,10.23
2022-12-13T08:26:52.980Z,9.50
2022-12-13T08:29:22.773Z,10.37
2022-12-13T08:32:02.309Z,10.67
2022-12-13T08:34:31.516Z,9.70
2022-12-13T08:37:02.779Z,9.80
2022-12-13T08:39:34.130Z,10.57
2022-12-13T08:42:16.211Z,10.50
2022-12-13T08:44:48.773Z,9.80
2022-12-13T08:47:23.517Z,9.57
2022-12-13T08:49:53.121Z,9.97
2022-12-13T08:52:23.476Z,9.83
2022-12-13T08:54:51.398Z,10.07
2022-12-13T08:57:19.318Z,9.93
2022-12-13T08:59:48.429Z,10.27
2022-12-13T09:02:16.690Z,9.43
2022-12-13T09:04:44.552Z,9.57
2022-12-13T09:07:12.634Z,10.20
2022-12-13T09:09:40.471Z,9.83
2022-12-13T09:12:11.117Z,10.30
2022-12-13T09:15:01.515Z,10.03
2022-12-13T09:17:37.076Z,10.10
2022-12-13T09:20:10.144Z,9.60
2022-12-13T09:23:01.355Z,9.27
2022-12-13T09:25:37.474Z,9.03
2022-12-13T09:28:07.650Z,9.17
2022-12-13T09:30:37.588Z,8.97
2022-12-13T09:33:25.575Z,8.77
2022-12-13T09:35:54.081Z,9.40
2022-12-13T09:38:22.409Z,9.20
2022-12-13T09:40:58.486Z,9.13
2022-12-13T09:43:32.674Z,8.40
2022-12-13T09:46:22.370Z,9.43
2022-12-13T09:49:01.527Z,8.93
2022-12-13T09:51:43.879Z,8.90
2022-12-13T09:54:19.326Z,9.03
2022-12-13T09:56:50.604Z,8.87
2022-12-13T09:59:19.902Z,8.93
2022-12-13T10:01:49.184Z,9.20
2022-12-13T10:04:17.660Z,8.90
2022-12-13T10:06:45.854Z,8.73
2022-12-13T10:09:15.619Z,8.73
2022-12-13T10:11:51.772Z,8.57
2022-12-13T10:14:25.577Z,8.43
2022-12-13T10:16:58.228Z,8.33
2022-12-13T10:19:34.615Z,8.73
2022-12-13T10:22:04.957Z,8.90
2022-12-13T10:24:50.775Z,8.77
2022-12-13T10:27:20.537Z,8.50
2022-12-13T10:30:03.405Z,9.13
2022-12-13T10:32:37.804Z,9.20
2022-12-13T10:35:21.651Z,9.07
2022-12-13T10:37:49.519Z,8.47
2022-12-13T10:40:32.179Z,8.87
2022-12-13T10:43:15.775Z,8.07
2022-12-13T10:45:44.962Z,9.27
2022-12-13T10:48:25.143Z,8.80
2022-12-13T10:51:01.901Z,8.67
2022-12-13T10:53:32.842Z,8.90
2022-12-13T10:56:02.149Z,8.83
2022-12-13T10:58:39.229Z,8.73
2022-12-13T11:01:20.443Z,8.60
2022-12-13T11:04:01.830Z,8.03
2022-12-13T11:06:43.333Z,8.83
2022-12-13T11:09:23.116Z,8.13
2022-12-13T11:11:58.217Z,8.73
2022-12-13T11:14:32.305Z,8.57
2022-12-13T11:17:07.105Z,9.17
2022-12-13T11:19:39.719Z,9.07
2022-12-13T11:22:09.689Z,9.20
2022-12-13T11:24:39.213Z,8.53
2022-12-13T11:27:25.683Z,8.30
2022-12-13T11:30:04.268Z,9.07
2022-12-13T11:32:47.069Z,8.90
2022-12-13T11:35:22.066Z,8.97
2022-12-13T11:37:57.156Z,8.63
2022-12-13T11:40:28.834Z,8.43
2022-12-13T11:43:00.182Z,8.73
2022-12-13T11:45:32.045Z,9.17
2022-12-13T11:48:06.383Z,8.73
2022-12-13T11:50:40.144Z,8.83
2022-12-13T11:53:23.328Z,9.10
2022-12-13T11:55:58.309Z,9.50
2022-12-13T11:59:01.200Z,8.17
2022-12-13T12:01:27.514Z,8.90
2022-12-13T12:04:01.253Z,8.63
2022-12-13T12:06:37.946Z,8.83
2022-12-13T12:09:10.525Z,9.20
2022-12-13T12:11:47.193Z,8.77
2022-12-13T12:14:20.612Z,9.00
2022-12-13T12:16:53.505Z,9.20
2022-12-13T12:19:24.032Z,8.90
2022-12-13T12:22:15.739Z,8.93
2022-12-13T12:24:57.261Z,9.50
2022-12-13T12:27:34.409Z,8.93
2022-12-13T12:30:23.312Z,8.57
2022-12-13T12:33:00.321Z,9.17
2022-12-13T12:35:53.187Z,9.33
2022-12-13T12:38:46.258Z,9.10
2022-12-13T12:41:28.333Z,9.10
2022-12-13T12:44:04.637Z,8.37
2022-12-13T12:47:18.136Z,9.20
2022-12-13T12:50:05.979Z,9.13
2022-12-13T12:52:44.191Z,9.20
2022-12-13T12:55:20.464Z,9.53
2022-12-13T12:58:01.729Z,10.30
2022-12-13T13:00:36.752Z,9.03
2022-12-13T13:03:22.071Z,9.63
2022-12-13T13:06:01.625Z,9.10
2022-12-13T13:08:38.042Z,9.27
2022-12-13T13:11:24.965Z,8.67
2022-12-13T13:14:03.355Z,8.50
2022-12-13T13:16:34.638Z,8.60
2022-12-13T13:19:02.802Z,9.20
2022-12-13T13:21:45.888Z,9.27
2022-12-13T13:24:27.514Z,8.40
2022-12-13T13:26:58.745Z,9.77
2022-12-13T13:29:32.770Z,9.03
2022-12-13T13:32:03.078Z,8.40
2022-12-13T13:34:32.760Z,8.97
2022-12-13T13:37:01.239Z,8.97
2022-12-13T13:39:55.593Z,8.77
2022-12-13T13:42:25.588Z,9.23
2022-12-13T13:45:23.520Z,9.47
2022-12-13T13:48:20.256Z,8.33
2022-12-13T13:51:13.224Z,8.63
2022-12-13T13:54:10.015Z,9.67
2022-12-13T13:56:53.799Z,8.80
2022-12-13T13:59:54.947Z,9.00
2022-12-13T14:02:50.228Z,8.77
2022-12-13T14:06:01.368Z,8.90
2022-12-13T14:08:35.745Z,8.93
2022-12-13T14:11:22.913Z,9.50
2022-12-13T14:14:38.634Z,9.23
2022-12-13T14:17:55.046Z,9.80
2022-12-13T14:20:46.128Z,9.47
2022-12-13T14:23:26.281Z,8.97
2022-12-13T14:26:20.253Z,9.83
2022-12-13T14:28:51.455Z,9.10
2022-12-13T14:31:22.948Z,9.37
2022-12-13T14:33:53.082Z,9.13
2022-12-13T14:36:29.276Z,9.53
2022-12-13T14:39:02.213Z,9.13
2022-12-13T14:41:30.418Z,8.97
2022-12-13T14:44:14.993Z,9.63
2022-12-13T14:46:53.655Z,8.87
2022-12-13T14:49:24.552Z,8.80
2022-12-13T14:52:01.219Z,8.67
2022-12-13T14:54:35.915Z,8.53
2022-12-13T14:57:05.462Z,8.80
2022-12-13T14:59:34.290Z,8.87
2022-12-13T15:02:04.209Z,8.67
2022-12-13T15:04:37.845Z,8.43
2022-12-13T15:07:09.312Z,8.53
2022-12-13T15:09:39.786Z,8.63
2022-12-13T15:12:23.750Z,8.40
2022-12-13T15:14:57.614Z,9.10
2022-12-13T15:17:32.213Z,8.30
2022-12-13T15:20:02.146Z,7.73
2022-12-13T15:22:30.270Z,8.10
2022-12-13T15:24:58.748Z,8.50
2022-12-13T15:27:27.102Z,8.03
2022-12-13T15:29:56.084Z,8.17
2022-12-13T15:32:24.161Z,8.37
2022-12-13T15:34:52.763Z,8.93
2022-12-13T15:37:28.444Z,9.23
2022-12-13T15:40:00.956Z,8.47
2022-12-13T15:42:32.904Z,8.00
2022-12-13T15:45:05.154Z,8.57
2022-12-13T15:47:33.728Z,9.10
2022-12-13T15:50:04.249Z,8.60
2022-12-13T15:52:36.518Z,9.00
2022-12-13T15:55:28.471Z,8.67
2022-12-13T15:57:58.695Z,9.20
2022-12-13T16:00:31.839Z,8.33
2022-12-13T16:03:08.481Z,9.13
2022-12-13T16:05:41.154Z,9.23
2022-12-13T16:08:28.186Z,8.80
2022-12-13T16:10:57.128Z,8.40
2022-12-13T16:13:27.522Z,9.27
2022-12-13T16:16:00.403Z,8.93
2022-12-13T16:18:45.604Z,9.30
2022-12-13T16:21:14.286Z,9.00
2022-12-13T16:23:48.800Z,9.37
2022-12-13T16:26:23.040Z,8.97
2022-12-13T16:28:50.936Z,9.10
2022-12-13T16:31:21.214Z,9.07
2022-12-13T16:33:49.508Z,9.43
2022-12-13T16:36:17.766Z,9.23
2022-12-13T16:38:46.928Z,9.30
2022-12-13T16:41:16.207Z,9.87
2022-12-13T16:43:52.628Z,9.93
2022-12-13T16:47:11.828Z,9.73
2022-12-13T16:49:21.426Z,9.00
2022-12-13T16:51:49.687Z,10.23
2022-12-13T16:54:20.044Z,9.23
2022-12-13T16:56:48.374Z,9.07
2022-12-13T16:59:18.424Z,9.53
2022-12-13T17:01:46.675Z,9.60
2022-12-13T17:04:20.753Z,9.47
2022-12-13T17:06:49.992Z,9.53
2022-12-13T17:09:19.768Z,9.00
2022-12-13T17:11:47.592Z,9.77
2022-12-13T17:14:15.502Z,9.70
2022-12-13T17:16:43.410Z,9.57
2022-12-13T17:19:11.845Z,9.63
2022-12-13T17:21:39.675Z,9.27
2022-12-13T17:24:08.256Z,9.77
2022-12-13T17:26:37.504Z,10.30
2022-12-13T17:29:05.485Z,9.53
2022-12-13T17:31:36.006Z,9.20
2022-12-13T17:34:04.404Z,9.80
2022-12-13T17:36:32.365Z,9.03
2022-12-13T17:39:00.264Z,10.07
2022-12-13T17:41:28.083Z,10.20
2022-12-13T17:44:01.288Z,9.30
2022-12-13T17:46:29.224Z,10.30
2022-12-13T17:48:57.154Z,10.43
2022-12-13T17:51:25.032Z,9.50
2022-12-13T17:53:52.883Z,10.10
2022-12-13T17:56:21.068Z,9.07
2022-12-13T17:58:51.412Z,9.90
2022-12-13T18:01:22.117Z,9.53
2022-12-13T18:03:53.838Z,10.03
2022-12-13T18:06:21.674Z,10.57
2022-12-13T18:08:49.545Z,9.90
2022-12-13T18:11:35.117Z,10.30
2022-12-13T18:14:03.952Z,9.57
2022-12-13T18:16:37.581Z,9.80
2022-12-13T18:19:07.529Z,10.90
2022-12-13T18:21:37.040Z,9.97
2022-12-13T18:24:06.392Z,9.77
2022-12-13T18:26:34.672Z,10.50
2022-12-13T18:29:02.618Z,10.03
2022-12-13T18:31:30.574Z,9.17
2022-12-13T18:34:00.119Z,10.07
2022-12-13T18:36:28.624Z,10.57
2022-12-13T18:38:56.770Z,10.40
2022-12-13T18:41:28.029Z,11.10
2022-12-13T18:43:59.668Z,12.00
2022-12-13T18:46:28.733Z,11.07
2022-12-13T18:48:56.862Z,10.10
2022-12-13T18:51:26.758Z,10.97
2022-12-13T18:53:55.931Z,10.87
2022-12-13T18:56:24.343Z,10.77
2022-12-13T18:58:53.429Z,11.37
2022-12-13T19:01:22.847Z,10.83
2022-12-13T19:03:52.223Z,11.07
2022-12-13T19:06:22.603Z,10.80
2022-12-13T19:08:53.836Z,11.07
2022-12-13T19:11:21.893Z,10.83
2022-12-13T19:13:50.448Z,11.30
2022-12-13T19:16:20.216Z,10.97
2022-12-13T19:18:48.566Z,11.63
2022-12-13T19:21:19.318Z,11.27
2022-12-13T19:23:54.953Z,11.67
2022-12-13T19:26:27.195Z,12.10
2022-12-13T19:28:57.312Z,12.70
2022-12-13T19:31:30.501Z,12.07
2022-12-13T19:34:01.008Z,11.93
2022-12-13T19:36:28.869Z,11.73
2022-12-13T19:38:57.031Z,12.20
2022-12-13T19:41:26.357Z,12.10
2022-12-13T19:43:54.379Z,11.07
2022-12-13T19:46:22.455Z,11.93
2022-12-13T19:48:50.854Z,12.70
2022-12-13T19:51:18.765Z,11.70
2022-12-13T19:53:46.614Z,12.03
2022-12-13T19:56:17.634Z,12.00
2022-12-13T19:58:48.397Z,12.77
2022-12-13T20:01:16.517Z,11.30
2022-12-13T20:03:46.305Z,12.70
2022-12-13T20:06:17.096Z,12.57
2022-12-13T20:08:45.412Z,11.23
2022-12-13T20:11:15.374Z,12.20
2022-12-13T20:13:43.251Z,12.13
2022-12-13T20:16:17.758Z,12.13
2022-12-13T20:18:46.341Z,12.07
2022-12-13T20:21:15.548Z,11.87
2022-12-13T20:23:48.543Z,12.63
2022-12-13T20:26:20.326Z,12.23
2022-12-13T20:28:48.900Z,12.13
2022-12-13T20:31:19.922Z,11.80
2022-12-13T20:33:48.416Z,11.90
2022-12-13T20:36:26.104Z,12.97
2022-12-13T20:38:55.855Z,12.57
2022-12-13T20:41:25.861Z,12.80
2022-12-13T20:43:54.290Z,12.00
2022-12-13T20:46:24.884Z,12.83
2022-12-13T20:48:55.098Z,12.27
2022-12-13T20:51:25.747Z,14.50
2022-12-13T20:53:54.587Z,15.30
2022-12-13T20:56:24.369Z,14.40
2022-12-13T20:58:52.408Z,14.17
2022-12-13T21:01:22.533Z,13.73
2022-12-13T21:03:55.158Z,13.23
2022-12-13T21:06:23.609Z,13.57
2022-12-13T21:08:55.279Z,13.53
2022-12-13T21:11:25.898Z,13.70
2022-12-13T21:13:59.840Z,13.67
2022-12-13T21:16:32.611Z,13.43
2022-12-13T21:19:02.503Z,13.40
2022-12-13T21:21:31.041Z,14.10
2022-12-13T21:23:59.449Z,14.03
2022-12-13T21:26:34.677Z,14.30
2022-12-13T21:29:06.329Z,14.20
2022-12-13T21:31:34.984Z,13.17
2022-12-13T21:34:06.415Z,13.87
2022-12-13T21:36:35.913Z,13.80
2022-12-13T21:39:06.660Z,15.33
2022-12-13T21:41:34.571Z,14.43
2022-12-13T21:44:02.409Z,13.90
2022-12-13T21:46:55.285Z,14.60
2022-12-13T21:49:20.481Z,14.03
2022-12-13T21:51:48.800Z,15.57
2022-12-13T21:54:18.003Z,14.23
2022-12-13T21:57:03.407Z,14.30
2022-12-13T21:59:31.812Z,14.30
2022-12-13T22:02:14.723Z,15.20
2022-12-13T22:04:46.084Z,15.03
2022-12-13T22:07:16.171Z,14.07
2022-12-13T22:09:44.213Z,14.03
2022-12-13T22:12:19.790Z,14.87
2022-12-13T22:14:48.175Z,15.23
2022-12-13T22:17:16.702Z,15.13
2022-12-13T22:19:48.608Z,14.37
2022-12-13T22:22:17.515Z,13.97
2022-12-13T22:24:52.703Z,14.73
2022-12-13T22:27:23.692Z,15.43
2022-12-13T22:29:52.075Z,14.27
2022-12-13T22:32:19.992Z,15.03
2022-12-13T22:34:49.267Z,14.00
2022-12-13T22:37:17.198Z,15.00
2022-12-13T22:39:45.001Z,14.73
2022-12-13T22:42:12.842Z,14.87
2022-12-13T22:44:40.801Z,14.50
2022-12-13T22:47:08.654Z,14.10
2022-12-13T22:49:36.501Z,14.90
2022-12-13T22:52:06.239Z,14.60
2022-12-13T22:54:34.076Z,14.30
2022-12-13T22:57:01.968Z,14.17
2022-12-13T22:59:29.882Z,15.47
2022-12-13T23:02:02.452Z,15.73
2022-12-13T23:04:30.688Z,15.43
2022-12-13T23:06:58.553Z,14.27
2022-12-13T23:09:27.849Z,14.50
2022-12-13T23:12:13.395Z,14.77
2022-12-13T23:14:41.457Z,14.57
2022-12-13T23:17:09.347Z,14.60
2022-12-13T23:19:50.010Z,14.87
2022-12-13T23:22:21.347Z,14.77
2022-12-13T23:24:51.001Z,14.03
2022-12-13T23:27:19.611Z,14.43
2022-12-13T23:29:47.461Z,14.33
2022-12-13T23:32:15.438Z,14.83
2022-12-13T23:34:43.277Z,13.97
2022-12-13T23:37:11.100Z,14.37
2022-12-13T23:39:38.976Z,14.67
2022-12-13T23:42:08.299Z,15.00
2022-12-13T23:44:36.358Z,15.50
2022-12-13T23:47:04.370Z,15.23
2022-12-13T23:49:32.292Z,15.47
2022-12-13T23:52:00.169Z,14.97
2022-12-13T23:54:28.034Z,15.07
2022-12-13T23:56:55.847Z,14.33
2022-12-13T23:59:26.031Z,15.03
